sensor_id;sensor_type;location;lat;lon;timestamp;P1;durP1;ratioP1;P2;durP2;ratioP2
10418;SDS011;5256;48.728;9.140;2024-01-15T00:01:54;1.30;;;1.30;;
10418;SDS011;5256;48.728;9.140;2024-01-15T00:04:19;1.20;;;1.20;;
10418;SDS011;5256;48.728;9.140;2024-01-15T00:06:45;1.40;;;1.40;;
10418;SDS011;5256;48.728;9.140;2024-01-15T00:09:10;1.20;;;1.20;;
10418;SDS011;5256;48.728;9.140;2024-01-15T00:11:36;1.30;;;1.30;;
10418;SDS011;5256;48.728;9.140;2024-01-15T00:14:01;1.30;;;1.30;;
10418;SDS011;5256;48.728;9.140;2024-01-15T00:16:28;1.30;;;1.30;;
10418;SDS011;5256;48.728;9.140;2024-01-15T00:18:53;1.30;;;1.30;;
10418;SDS011;5256;48.728;9.140;2024-01-15T00:21:19;1.20;;;1.20;;
10418;SDS011;5256;48.728;9.140;2024-01-15T00:23:45;1.30;;;1.30;;
10418;SDS011;5256;48.728;9.140;2024-01-15T00:26:11;1.30;;;1.30;;
10418;SDS011;5256;48.728;9.140;2024-01-15T00:28:37;1.30;;;1.30;;
10418;SDS011;5256;48.728;9.140;2024-01-15T00:31:03;1.20;;;1.20;;
10418;SDS011;5256;48.728;9.140;2024-01-15T00:33:29;1.20;;;1.20;;
10418;SDS011;5256;48.728;9.140;2024-01-15T00:35:55;1.30;;;1.30;;
10418;SDS011;5256;48.728;9.140;2024-01-15T00:38:21;1.40;;;1.40;;
10418;SDS011;5256;48.728;9.140;2024-01-15T00:40:46;1.30;;;1.30;;
10418;SDS011;5256;48.728;9.140;2024-01-15T00:43:12;1.30;;;1.30;;
10418;SDS011;5256;48.728;9.140;2024-01-15T00:45:38;1.30;;;1.30;;
10418;SDS011;5256;48.728;9.140;2024-01-15T00:48:04;1.27;;;1.27;;
10418;SDS011;5256;48.728;9.140;2024-01-15T00:50:30;1.30;;;1.30;;
10418;SDS011;5256;48.728;9.140;2024-01-15T00:52:55;1.30;;;1.30;;
10418;SDS011;5256;48.728;9.140;2024-01-15T00:55:21;1.40;;;1.40;;
10418;SDS011;5256;48.728;9.140;2024-01-15T00:57:46;1.30;;;1.30;;
10418;SDS011;5256;48.728;9.140;2024-01-15T01:00:12;1.50;;;1.50;;
10418;SDS011;5256;48.728;9.140;2024-01-15T01:02:38;1.20;;;1.20;;
10418;SDS011;5256;48.728;9.140;2024-01-15T01:05:04;1.30;;;1.30;;
10418;SDS011;5256;48.728;9.140;2024-01-15T01:07:29;1.30;;;1.30;;
10418;SDS011;5256;48.728;9.140;2024-01-15T01:09:55;1.30;;;1.30;;
10418;SDS011;5256;48.728;9.140;2024-01-15T01:12:20;1.20;;;1.20;;
10418;SDS011;5256;48.728;9.140;2024-01-15T01:14:46;1.30;;;1.30;;
10418;SDS011;5256;48.728;9.140;2024-01-15T01:17:12;1.40;;;1.40;;
10418;SDS011;5256;48.728;9.140;2024-01-15T01:19:37;1.23;;;1.23;;
10418;SDS011;5256;48.728;9.140;2024-01-15T01:22:03;1.30;;;1.30;;
10418;SDS011;5256;48.728;9.140;2024-01-15T01:24:29;1.30;;;1.30;;
10418;SDS011;5256;48.728;9.140;2024-01-15T01:26:54;1.30;;;1.30;;
10418;SDS011;5256;48.728;9.140;2024-01-15T01:29:20;1.40;;;1.40;;
10418;SDS011;5256;48.728;9.140;2024-01-15T01:31:46;1.40;;;1.40;;
10418;SDS011;5256;48.728;9.140;2024-01-15T01:34:15;1.20;;;1.20;;
10418;SDS011;5256;48.728;9.140;2024-01-15T01:36:41;1.20;;;1.20;;
10418;SDS011;5256;48.728;9.140;2024-01-15T01:39:07;1.30;;;1.30;;
10418;SDS011;5256;48.728;9.140;2024-01-15T01:41:34;1.30;;;1.30;;
10418;SDS011;5256;48.728;9.140;2024-01-15T01:44:00;1.30;;;1.30;;
10418;SDS011;5256;48.728;9.140;2024-01-15T01:46:25;1.30;;;1.30;;
10418;SDS011;5256;48.728;9.140;2024-01-15T01:48:52;1.30;;;1.30;;
10418;SDS011;5256;48.728;9.140;2024-01-15T01:51:20;1.20;;;1.20;;
10418;SDS011;5256;48.728;9.140;2024-01-15T01:53:47;1.20;;;1.20;;
10418;SDS011;5256;48.728;9.140;2024-01-15T01:56:14;1.33;;;1.33;;
10418;SDS011;5256;48.728;9.140;2024-01-15T01:58:40;1.20;;;1.20;;
10418;SDS011;5256;48.728;9.140;2024-01-15T02:01:06;1.30;;;1.30;;
10418;SDS011;5256;48.728;9.140;2024-01-15T02:03:32;1.20;;;1.20;;
10418;SDS011;5256;48.728;9.140;2024-01-15T02:05:58;1.30;;;1.30;;
10418;SDS011;5256;48.728;9.140;2024-01-15T02:08:25;1.30;;;1.30;;
10418;SDS011;5256;48.728;9.140;2024-01-15T02:10:51;1.30;;;1.30;;
10418;SDS011;5256;48.728;9.140;2024-01-15T02:13:17;1.30;;;1.30;;
10418;SDS011;5256;48.728;9.140;2024-01-15T02:15:45;1.30;;;1.30;;
10418;SDS011;5256;48.728;9.140;2024-01-15T02:18:11;1.30;;;1.30;;
10418;SDS011;5256;48.728;9.140;2024-01-15T02:20:37;1.30;;;1.30;;
10418;SDS011;5256;48.728;9.140;2024-01-15T02:23:09;1.30;;;1.30;;
10418;SDS011;5256;48.728;9.140;2024-01-15T02:25:37;1.40;;;1.40;;
10418;SDS011;5256;48.728;9.140;2024-01-15T02:28:07;1.27;;;1.27;;
10418;SDS011;5256;48.728;9.140;2024-01-15T02:30:38;1.23;;;1.23;;
10418;SDS011;5256;48.728;9.140;2024-01-15T02:33:08;1.30;;;1.30;;
10418;SDS011;5256;48.728;9.140;2024-01-15T02:35:34;1.40;;;1.40;;
10418;SDS011;5256;48.728;9.140;2024-01-15T02:38:03;1.40;;;1.40;;
10418;SDS011;5256;48.728;9.140;2024-01-15T02:40:29;1.20;;;1.20;;
10418;SDS011;5256;48.728;9.140;2024-01-15T02:42:55;1.30;;;1.30;;
10418;SDS011;5256;48.728;9.140;2024-01-15T02:45:21;1.30;;;1.30;;
10418;SDS011;5256;48.728;9.140;2024-01-15T02:47:47;1.30;;;1.30;;
10418;SDS011;5256;48.728;9.140;2024-01-15T02:50:12;1.30;;;1.30;;
10418;SDS011;5256;48.728;9.140;2024-01-15T02:52:38;1.40;;;1.40;;
10418;SDS011;5256;48.728;9.140;2024-01-15T02:55:04;1.30;;;1.30;;
10418;SDS011;5256;48.728;9.140;2024-01-15T02:57:29;1.20;;;1.20;;
10418;SDS011;5256;48.728;9.140;2024-01-15T02:59:55;1.30;;;1.30;;
10418;SDS011;5256;48.728;9.140;2024-01-15T03:02:20;1.50;;;1.50;;
10418;SDS011;5256;48.728;9.140;2024-01-15T03:04:46;1.30;;;1.30;;
10418;SDS011;5256;48.728;9.140;2024-01-15T03:07:12;1.20;;;1.20;;
10418;SDS011;5256;48.728;9.140;2024-01-15T03:09:37;1.30;;;1.30;;
10418;SDS011;5256;48.728;9.140;2024-01-15T03:12:03;1.30;;;1.30;;
10418;SDS011;5256;48.728;9.140;2024-01-15T03:14:29;1.30;;;1.30;;
10418;SDS011;5256;48.728;9.140;2024-01-15T03:16:55;1.30;;;1.30;;
10418;SDS011;5256;48.728;9.140;2024-01-15T03:19:21;1.30;;;1.30;;
10418;SDS011;5256;48.728;9.140;2024-01-15T03:21:46;1.30;;;1.30;;
10418;SDS011;5256;48.728;9.140;2024-01-15T03:24:12;1.30;;;1.30;;
10418;SDS011;5256;48.728;9.140;2024-01-15T03:26:37;1.30;;;1.30;;
10418;SDS011;5256;48.728;9.140;2024-01-15T03:29:03;1.20;;;1.20;;
10418;SDS011;5256;48.728;9.140;2024-01-15T03:31:28;1.30;;;1.30;;
10418;SDS011;5256;48.728;9.140;2024-01-15T03:33:54;1.30;;;1.30;;
10418;SDS011;5256;48.728;9.140;2024-01-15T03:36:20;1.30;;;1.30;;
10418;SDS011;5256;48.728;9.140;2024-01-15T03:38:45;1.30;;;1.30;;
10418;SDS011;5256;48.728;9.140;2024-01-15T03:41:11;1.30;;;1.30;;
10418;SDS011;5256;48.728;9.140;2024-01-15T03:43:37;1.30;;;1.30;;
10418;SDS011;5256;48.728;9.140;2024-01-15T03:46:03;1.27;;;1.27;;
10418;SDS011;5256;48.728;9.140;2024-01-15T03:48:29;1.30;;;1.30;;
10418;SDS011;5256;48.728;9.140;2024-01-15T03:50:55;1.10;;;1.10;;
10418;SDS011;5256;48.728;9.140;2024-01-15T03:53:20;1.30;;;1.30;;
10418;SDS011;5256;48.728;9.140;2024-01-15T03:55:46;1.30;;;1.30;;
10418;SDS011;5256;48.728;9.140;2024-01-15T03:58:12;1.20;;;1.20;;
10418;SDS011;5256;48.728;9.140;2024-01-15T04:00:39;1.30;;;1.30;;
10418;SDS011;5256;48.728;9.140;2024-01-15T04:03:05;1.30;;;1.30;;
10418;SDS011;5256;48.728;9.140;2024-01-15T04:05:31;1.30;;;1.30;;
10418;SDS011;5256;48.728;9.140;2024-01-15T04:07:57;1.27;;;1.27;;
10418;SDS011;5256;48.728;9.140;2024-01-15T04:10:22;1.30;;;1.30;;
10418;SDS011;5256;48.728;9.140;2024-01-15T04:12:48;1.30;;;1.30;;
10418;SDS011;5256;48.728;9.140;2024-01-15T04:15:13;1.30;;;1.30;;
10418;SDS011;5256;48.728;9.140;2024-01-15T04:17:39;1.30;;;1.30;;
10418;SDS011;5256;48.728;9.140;2024-01-15T04:20:04;1.20;;;1.20;;
10418;SDS011;5256;48.728;9.140;2024-01-15T04:22:31;1.30;;;1.30;;
10418;SDS011;5256;48.728;9.140;2024-01-15T04:24:58;1.20;;;1.20;;
10418;SDS011;5256;48.728;9.140;2024-01-15T04:27:23;1.20;;;1.20;;
10418;SDS011;5256;48.728;9.140;2024-01-15T04:29:49;1.30;;;1.30;;
10418;SDS011;5256;48.728;9.140;2024-01-15T04:32:15;1.20;;;1.20;;
10418;SDS011;5256;48.728;9.140;2024-01-15T04:34:40;1.20;;;1.20;;
10418;SDS011;5256;48.728;9.140;2024-01-15T04:37:06;1.20;;;1.20;;
10418;SDS011;5256;48.728;9.140;2024-01-15T04:39:32;1.23;;;1.23;;
10418;SDS011;5256;48.728;9.140;2024-01-15T04:41:57;1.40;;;1.40;;
10418;SDS011;5256;48.728;9.140;2024-01-15T04:44:23;1.20;;;1.20;;
10418;SDS011;5256;48.728;9.140;2024-01-15T04:46:48;1.30;;;1.30;;
10418;SDS011;5256;48.728;9.140;2024-01-15T04:49:14;1.10;;;1.10;;
10418;SDS011;5256;48.728;9.140;2024-01-15T04:51:39;1.13;;;1.13;;
10418;SDS011;5256;48.728;9.140;2024-01-15T04:54:05;1.20;;;1.20;;
10418;SDS011;5256;48.728;9.140;2024-01-15T04:56:31;1.20;;;1.20;;
10418;SDS011;5256;48.728;9.140;2024-01-15T04:58:56;1.20;;;1.20;;
10418;SDS011;5256;48.728;9.140;2024-01-15T05:01:22;1.20;;;1.20;;
10418;SDS011;5256;48.728;9.140;2024-01-15T05:03:47;1.20;;;1.20;;
10418;SDS011;5256;48.728;9.140;2024-01-15T05:06:14;1.03;;;1.03;;
10418;SDS011;5256;48.728;9.140;2024-01-15T05:08:40;1.20;;;1.20;;
10418;SDS011;5256;48.728;9.140;2024-01-15T05:11:06;1.20;;;1.20;;
10418;SDS011;5256;48.728;9.140;2024-01-15T05:13:31;1.20;;;1.20;;
10418;SDS011;5256;48.728;9.140;2024-01-15T05:15:57;1.10;;;1.10;;
10418;SDS011;5256;48.728;9.140;2024-01-15T05:18:23;1.20;;;1.20;;
10418;SDS011;5256;48.728;9.140;2024-01-15T05:20:48;1.20;;;1.20;;
10418;SDS011;5256;48.728;9.140;2024-01-15T05:23:14;1.20;;;1.20;;
10418;SDS011;5256;48.728;9.140;2024-01-15T05:25:39;1.20;;;1.20;;
10418;SDS011;5256;48.728;9.140;2024-01-15T05:28:05;1.20;;;1.20;;
10418;SDS011;5256;48.728;9.140;2024-01-15T05:30:31;1.20;;;1.20;;
10418;SDS011;5256;48.728;9.140;2024-01-15T05:32:56;1.20;;;1.20;;
10418;SDS011;5256;48.728;9.140;2024-01-15T05:35:22;1.20;;;1.20;;
10418;SDS011;5256;48.728;9.140;2024-01-15T05:37:48;1.20;;;1.20;;
10418;SDS011;5256;48.728;9.140;2024-01-15T05:40:14;1.20;;;1.20;;
10418;SDS011;5256;48.728;9.140;2024-01-15T05:42:39;1.10;;;1.10;;
10418;SDS011;5256;48.728;9.140;2024-01-15T05:45:06;1.20;;;1.20;;
10418;SDS011;5256;48.728;9.140;2024-01-15T05:47:32;1.20;;;1.20;;
10418;SDS011;5256;48.728;9.140;2024-01-15T05:49:58;1.20;;;1.20;;
10418;SDS011;5256;48.728;9.140;2024-01-15T05:52:23;1.20;;;1.20;;
10418;SDS011;5256;48.728;9.140;2024-01-15T05:54:49;1.30;;;1.30;;
10418;SDS011;5256;48.728;9.140;2024-01-15T05:57:15;1.20;;;1.20;;
10418;SDS011;5256;48.728;9.140;2024-01-15T05:59:42;1.20;;;1.20;;
10418;SDS011;5256;48.728;9.140;2024-01-15T06:02:09;1.20;;;1.20;;
10418;SDS011;5256;48.728;9.140;2024-01-15T06:04:34;1.20;;;1.20;;
10418;SDS011;5256;48.728;9.140;2024-01-15T06:07:00;1.30;;;1.30;;
10418;SDS011;5256;48.728;9.140;2024-01-15T06:09:25;1.30;;;1.30;;
10418;SDS011;5256;48.728;9.140;2024-01-15T06:11:51;1.20;;;1.20;;
10418;SDS011;5256;48.728;9.140;2024-01-15T06:14:16;1.30;;;1.30;;
10418;SDS011;5256;48.728;9.140;2024-01-15T06:16:42;1.20;;;1.20;;
10418;SDS011;5256;48.728;9.140;2024-01-15T06:19:07;1.23;;;1.23;;
10418;SDS011;5256;48.728;9.140;2024-01-15T06:21:33;1.20;;;1.20;;
10418;SDS011;5256;48.728;9.140;2024-01-15T06:23:59;1.20;;;1.20;;
10418;SDS011;5256;48.728;9.140;2024-01-15T06:26:24;1.20;;;1.20;;
10418;SDS011;5256;48.728;9.140;2024-01-15T06:28:50;1.20;;;1.20;;
10418;SDS011;5256;48.728;9.140;2024-01-15T06:31:15;1.20;;;1.20;;
10418;SDS011;5256;48.728;9.140;2024-01-15T06:33:41;1.10;;;1.10;;
10418;SDS011;5256;48.728;9.140;2024-01-15T06:36:07;1.27;;;1.27;;
10418;SDS011;5256;48.728;9.140;2024-01-15T06:38:33;1.30;;;1.30;;
10418;SDS011;5256;48.728;9.140;2024-01-15T06:40:59;1.20;;;1.20;;
10418;SDS011;5256;48.728;9.140;2024-01-15T06:43:25;1.20;;;1.20;;
10418;SDS011;5256;48.728;9.140;2024-01-15T06:45:50;1.20;;;1.20;;
10418;SDS011;5256;48.728;9.140;2024-01-15T06:48:16;1.20;;;1.20;;
10418;SDS011;5256;48.728;9.140;2024-01-15T06:50:45;1.20;;;1.20;;
10418;SDS011;5256;48.728;9.140;2024-01-15T06:53:10;1.20;;;1.20;;
10418;SDS011;5256;48.728;9.140;2024-01-15T06:55:36;1.20;;;1.20;;
10418;SDS011;5256;48.728;9.140;2024-01-15T06:58:02;1.20;;;1.20;;
10418;SDS011;5256;48.728;9.140;2024-01-15T07:00:28;1.20;;;1.20;;
10418;SDS011;5256;48.728;9.140;2024-01-15T07:02:54;1.20;;;1.20;;
10418;SDS011;5256;48.728;9.140;2024-01-15T07:05:23;1.20;;;1.20;;
10418;SDS011;5256;48.728;9.140;2024-01-15T07:07:48;1.20;;;1.20;;
10418;SDS011;5256;48.728;9.140;2024-01-15T07:10:14;1.20;;;1.20;;
10418;SDS011;5256;48.728;9.140;2024-01-15T07:12:43;1.30;;;1.30;;
10418;SDS011;5256;48.728;9.140;2024-01-15T07:15:09;1.20;;;1.20;;
10418;SDS011;5256;48.728;9.140;2024-01-15T07:17:35;1.20;;;1.20;;
10418;SDS011;5256;48.728;9.140;2024-01-15T07:20:08;1.30;;;1.30;;
10418;SDS011;5256;48.728;9.140;2024-01-15T07:22:37;1.30;;;1.30;;
10418;SDS011;5256;48.728;9.140;2024-01-15T07:25:03;1.20;;;1.20;;
10418;SDS011;5256;48.728;9.140;2024-01-15T07:27:30;1.10;;;1.10;;
10418;SDS011;5256;48.728;9.140;2024-01-15T07:29:56;1.20;;;1.20;;
10418;SDS011;5256;48.728;9.140;2024-01-15T07:32:21;1.20;;;1.20;;
10418;SDS011;5256;48.728;9.140;2024-01-15T07:34:47;1.20;;;1.20;;
10418;SDS011;5256;48.728;9.140;2024-01-15T07:37:13;1.20;;;1.20;;
10418;SDS011;5256;48.728;9.140;2024-01-15T07:39:38;1.20;;;1.20;;
10418;SDS011;5256;48.728;9.140;2024-01-15T07:42:04;1.20;;;1.20;;
10418;SDS011;5256;48.728;9.140;2024-01-15T07:44:30;1.30;;;1.30;;
10418;SDS011;5256;48.728;9.140;2024-01-15T07:46:55;1.20;;;1.20;;
10418;SDS011;5256;48.728;9.140;2024-01-15T07:49:21;1.20;;;1.20;;
10418;SDS011;5256;48.728;9.140;2024-01-15T07:51:48;1.20;;;1.20;;
10418;SDS011;5256;48.728;9.140;2024-01-15T07:54:14;1.20;;;1.20;;
10418;SDS011;5256;48.728;9.140;2024-01-15T07:59:26;1.20;;;1.20;;
10418;SDS011;5256;48.728;9.140;2024-01-15T08:01:52;1.20;;;1.20;;
10418;SDS011;5256;48.728;9.140;2024-01-15T08:04:18;1.20;;;1.20;;
10418;SDS011;5256;48.728;9.140;2024-01-15T08:06:44;1.20;;;1.20;;
10418;SDS011;5256;48.728;9.140;2024-01-15T08:09:11;1.20;;;1.20;;
10418;SDS011;5256;48.728;9.140;2024-01-15T08:11:40;1.20;;;1.20;;
10418;SDS011;5256;48.728;9.140;2024-01-15T08:14:07;1.10;;;1.10;;
10418;SDS011;5256;48.728;9.140;2024-01-15T08:16:33;1.10;;;1.10;;
10418;SDS011;5256;48.728;9.140;2024-01-15T08:18:59;1.20;;;1.20;;
10418;SDS011;5256;48.728;9.140;2024-01-15T08:21:25;1.20;;;1.20;;
10418;SDS011;5256;48.728;9.140;2024-01-15T08:23:50;1.10;;;1.10;;
10418;SDS011;5256;48.728;9.140;2024-01-15T08:26:16;1.10;;;1.10;;
10418;SDS011;5256;48.728;9.140;2024-01-15T08:28:41;1.10;;;1.10;;
10418;SDS011;5256;48.728;9.140;2024-01-15T08:31:07;1.10;;;1.10;;
10418;SDS011;5256;48.728;9.140;2024-01-15T08:33:32;1.20;;;1.20;;
10418;SDS011;5256;48.728;9.140;2024-01-15T08:35:58;1.20;;;1.20;;
10418;SDS011;5256;48.728;9.140;2024-01-15T08:38:23;1.20;;;1.20;;
10418;SDS011;5256;48.728;9.140;2024-01-15T08:40:50;1.20;;;1.20;;
10418;SDS011;5256;48.728;9.140;2024-01-15T08:43:18;1.17;;;1.17;;
10418;SDS011;5256;48.728;9.140;2024-01-15T08:45:43;1.20;;;1.20;;
10418;SDS011;5256;48.728;9.140;2024-01-15T08:48:10;1.20;;;1.20;;
10418;SDS011;5256;48.728;9.140;2024-01-15T08:50:35;1.10;;;1.10;;
10418;SDS011;5256;48.728;9.140;2024-01-15T08:53:01;1.13;;;1.13;;
10418;SDS011;5256;48.728;9.140;2024-01-15T08:55:26;1.10;;;1.10;;
10418;SDS011;5256;48.728;9.140;2024-01-15T08:57:52;1.10;;;1.10;;
10418;SDS011;5256;48.728;9.140;2024-01-15T09:00:17;1.10;;;1.10;;
10418;SDS011;5256;48.728;9.140;2024-01-15T09:02:44;1.10;;;1.10;;
10418;SDS011;5256;48.728;9.140;2024-01-15T09:05:09;1.10;;;1.10;;
10418;SDS011;5256;48.728;9.140;2024-01-15T09:07:35;1.20;;;1.20;;
10418;SDS011;5256;48.728;9.140;2024-01-15T09:10:01;1.10;;;1.10;;
10418;SDS011;5256;48.728;9.140;2024-01-15T09:12:27;1.10;;;1.10;;
10418;SDS011;5256;48.728;9.140;2024-01-15T09:14:53;1.20;;;1.20;;
10418;SDS011;5256;48.728;9.140;2024-01-15T09:17:19;1.20;;;1.20;;
10418;SDS011;5256;48.728;9.140;2024-01-15T09:19:45;1.20;;;1.20;;
10418;SDS011;5256;48.728;9.140;2024-01-15T09:22:12;1.10;;;1.10;;
10418;SDS011;5256;48.728;9.140;2024-01-15T09:24:39;1.10;;;1.10;;
10418;SDS011;5256;48.728;9.140;2024-01-15T09:27:05;1.20;;;1.20;;
10418;SDS011;5256;48.728;9.140;2024-01-15T09:29:31;1.10;;;1.10;;
10418;SDS011;5256;48.728;9.140;2024-01-15T09:31:56;1.20;;;1.20;;
10418;SDS011;5256;48.728;9.140;2024-01-15T09:34:22;1.10;;;1.10;;
10418;SDS011;5256;48.728;9.140;2024-01-15T09:36:48;1.17;;;1.17;;
10418;SDS011;5256;48.728;9.140;2024-01-15T09:39:13;1.20;;;1.20;;
10418;SDS011;5256;48.728;9.140;2024-01-15T09:41:40;1.10;;;1.10;;
10418;SDS011;5256;48.728;9.140;2024-01-15T09:44:06;1.17;;;1.17;;
10418;SDS011;5256;48.728;9.140;2024-01-15T09:46:33;1.10;;;1.10;;
10418;SDS011;5256;48.728;9.140;2024-01-15T09:49:00;1.13;;;1.13;;
10418;SDS011;5256;48.728;9.140;2024-01-15T09:51:26;1.13;;;1.13;;
10418;SDS011;5256;48.728;9.140;2024-01-15T09:53:56;1.10;;;1.10;;
10418;SDS011;5256;48.728;9.140;2024-01-15T09:56:22;1.10;;;1.10;;
10418;SDS011;5256;48.728;9.140;2024-01-15T09:58:48;1.10;;;1.10;;
10418;SDS011;5256;48.728;9.140;2024-01-15T10:01:16;1.10;;;1.10;;
10418;SDS011;5256;48.728;9.140;2024-01-15T10:03:42;1.10;;;1.10;;
10418;SDS011;5256;48.728;9.140;2024-01-15T10:06:08;1.20;;;1.20;;
10418;SDS011;5256;48.728;9.140;2024-01-15T10:08:36;1.20;;;1.20;;
10418;SDS011;5256;48.728;9.140;2024-01-15T10:11:02;1.13;;;1.13;;
10418;SDS011;5256;48.728;9.140;2024-01-15T10:13:29;1.10;;;1.10;;
10418;SDS011;5256;48.728;9.140;2024-01-15T10:15:55;1.10;;;1.10;;
10418;SDS011;5256;48.728;9.140;2024-01-15T10:18:21;1.07;;;1.07;;
10418;SDS011;5256;48.728;9.140;2024-01-15T10:20:46;1.10;;;1.10;;
10418;SDS011;5256;48.728;9.140;2024-01-15T10:23:13;1.10;;;1.10;;
10418;SDS011;5256;48.728;9.140;2024-01-15T10:25:41;1.10;;;1.10;;
10418;SDS011;5256;48.728;9.140;2024-01-15T10:28:07;1.00;;;1.00;;
10418;SDS011;5256;48.728;9.140;2024-01-15T10:30:33;1.00;;;1.00;;
10418;SDS011;5256;48.728;9.140;2024-01-15T10:33:03;1.07;;;1.07;;
10418;SDS011;5256;48.728;9.140;2024-01-15T10:35:35;1.10;;;1.10;;
10418;SDS011;5256;48.728;9.140;2024-01-15T10:38:01;1.10;;;1.10;;
10418;SDS011;5256;48.728;9.140;2024-01-15T10:40:27;1.10;;;1.10;;
10418;SDS011;5256;48.728;9.140;2024-01-15T10:42:53;1.10;;;1.10;;
10418;SDS011;5256;48.728;9.140;2024-01-15T10:45:19;1.10;;;1.10;;
10418;SDS011;5256;48.728;9.140;2024-01-15T10:47:45;1.10;;;1.10;;
10418;SDS011;5256;48.728;9.140;2024-01-15T10:50:11;1.10;;;1.10;;
10418;SDS011;5256;48.728;9.140;2024-01-15T10:52:37;1.10;;;1.10;;
10418;SDS011;5256;48.728;9.140;2024-01-15T10:55:05;1.00;;;1.00;;
10418;SDS011;5256;48.728;9.140;2024-01-15T10:57:33;1.10;;;1.10;;
10418;SDS011;5256;48.728;9.140;2024-01-15T11:00:00;1.10;;;1.10;;
10418;SDS011;5256;48.728;9.140;2024-01-15T11:02:29;1.10;;;1.10;;
10418;SDS011;5256;48.728;9.140;2024-01-15T11:04:55;1.10;;;1.10;;
10418;SDS011;5256;48.728;9.140;2024-01-15T11:07:21;1.10;;;1.10;;
10418;SDS011;5256;48.728;9.140;2024-01-15T11:09:49;1.10;;;1.10;;
10418;SDS011;5256;48.728;9.140;2024-01-15T11:12:15;1.20;;;1.20;;
10418;SDS011;5256;48.728;9.140;2024-01-15T11:14:48;1.17;;;1.17;;
10418;SDS011;5256;48.728;9.140;2024-01-15T11:17:15;1.10;;;1.10;;
10418;SDS011;5256;48.728;9.140;2024-01-15T11:19:42;1.20;;;1.20;;
10418;SDS011;5256;48.728;9.140;2024-01-15T11:25:17;0.90;;;0.90;;
10418;SDS011;5256;48.728;9.140;2024-01-15T11:27:44;1.00;;;1.00;;
10418;SDS011;5256;48.728;9.140;2024-01-15T11:30:24;1.00;;;1.00;;
10418;SDS011;5256;48.728;9.140;2024-01-15T11:32:53;1.00;;;1.00;;
10418;SDS011;5256;48.728;9.140;2024-01-15T11:35:19;1.10;;;1.10;;
10418;SDS011;5256;48.728;9.140;2024-01-15T11:40:13;1.10;;;1.10;;
10418;SDS011;5256;48.728;9.140;2024-01-15T11:42:42;1.10;;;1.10;;
10418;SDS011;5256;48.728;9.140;2024-01-15T11:45:07;1.10;;;1.10;;
10418;SDS011;5256;48.728;9.140;2024-01-15T11:50:17;1.10;;;1.10;;
10418;SDS011;5256;48.728;9.140;2024-01-15T11:52:43;1.10;;;1.10;;
10418;SDS011;5256;48.728;9.140;2024-01-15T11:55:26;1.10;;;1.10;;
10418;SDS011;5256;48.728;9.140;2024-01-15T11:57:54;1.20;;;1.20;;
10418;SDS011;5256;48.728;9.140;2024-01-15T12:00:23;1.10;;;1.10;;
10418;SDS011;5256;48.728;9.140;2024-01-15T12:02:49;1.03;;;1.03;;
10418;SDS011;5256;48.728;9.140;2024-01-15T12:05:18;0.80;;;0.80;;
10418;SDS011;5256;48.728;9.140;2024-01-15T12:07:46;1.00;;;1.00;;
10418;SDS011;5256;48.728;9.140;2024-01-15T12:10:14;1.10;;;1.10;;
10418;SDS011;5256;48.728;9.140;2024-01-15T12:15:22;1.20;;;1.20;;
10418;SDS011;5256;48.728;9.140;2024-01-15T12:17:48;1.10;;;1.10;;
10418;SDS011;5256;48.728;9.140;2024-01-15T12:20:14;1.10;;;1.10;;
10418;SDS011;5256;48.728;9.140;2024-01-15T12:22:43;1.10;;;1.10;;
10418;SDS011;5256;48.728;9.140;2024-01-15T12:25:09;1.20;;;1.20;;
10418;SDS011;5256;48.728;9.140;2024-01-15T12:27:35;1.10;;;1.10;;
10418;SDS011;5256;48.728;9.140;2024-01-15T12:30:01;1.20;;;1.20;;
10418;SDS011;5256;48.728;9.140;2024-01-15T12:32:26;1.10;;;1.10;;
10418;SDS011;5256;48.728;9.140;2024-01-15T12:34:52;1.10;;;1.10;;
10418;SDS011;5256;48.728;9.140;2024-01-15T12:37:18;1.20;;;1.20;;
10418;SDS011;5256;48.728;9.140;2024-01-15T12:39:45;1.20;;;1.20;;
10418;SDS011;5256;48.728;9.140;2024-01-15T12:42:11;1.10;;;1.10;;
10418;SDS011;5256;48.728;9.140;2024-01-15T12:44:39;1.10;;;1.10;;
10418;SDS011;5256;48.728;9.140;2024-01-15T12:47:04;1.13;;;1.13;;
10418;SDS011;5256;48.728;9.140;2024-01-15T12:49:31;1.10;;;1.10;;
10418;SDS011;5256;48.728;9.140;2024-01-15T12:51:59;1.17;;;1.17;;
10418;SDS011;5256;48.728;9.140;2024-01-15T12:54:28;1.20;;;1.20;;
10418;SDS011;5256;48.728;9.140;2024-01-15T12:56:53;1.10;;;1.10;;
10418;SDS011;5256;48.728;9.140;2024-01-15T12:59:19;1.20;;;1.20;;
10418;SDS011;5256;48.728;9.140;2024-01-15T13:01:45;1.20;;;1.20;;
10418;SDS011;5256;48.728;9.140;2024-01-15T13:04:11;1.30;;;1.30;;
10418;SDS011;5256;48.728;9.140;2024-01-15T13:06:46;1.20;;;1.20;;
10418;SDS011;5256;48.728;9.140;2024-01-15T13:09:12;1.10;;;1.10;;
10418;SDS011;5256;48.728;9.140;2024-01-15T13:11:38;1.20;;;1.20;;
10418;SDS011;5256;48.728;9.140;2024-01-15T13:14:04;1.10;;;1.10;;
10418;SDS011;5256;48.728;9.140;2024-01-15T13:16:29;1.10;;;1.10;;
10418;SDS011;5256;48.728;9.140;2024-01-15T13:18:55;1.10;;;1.10;;
10418;SDS011;5256;48.728;9.140;2024-01-15T13:21:23;1.10;;;1.10;;
10418;SDS011;5256;48.728;9.140;2024-01-15T13:23:50;1.10;;;1.10;;
10418;SDS011;5256;48.728;9.140;2024-01-15T13:26:16;1.10;;;1.10;;
10418;SDS011;5256;48.728;9.140;2024-01-15T13:28:43;1.10;;;1.10;;
10418;SDS011;5256;48.728;9.140;2024-01-15T13:31:12;1.10;;;1.10;;
10418;SDS011;5256;48.728;9.140;2024-01-15T13:33:38;1.10;;;1.10;;
10418;SDS011;5256;48.728;9.140;2024-01-15T13:36:07;1.20;;;1.20;;
10418;SDS011;5256;48.728;9.140;2024-01-15T13:38:35;1.20;;;1.20;;
10418;SDS011;5256;48.728;9.140;2024-01-15T13:41:02;1.20;;;1.20;;
10418;SDS011;5256;48.728;9.140;2024-01-15T13:43:30;1.07;;;1.07;;
10418;SDS011;5256;48.728;9.140;2024-01-15T13:45:56;1.17;;;1.17;;
10418;SDS011;5256;48.728;9.140;2024-01-15T13:48:22;1.20;;;1.20;;
10418;SDS011;5256;48.728;9.140;2024-01-15T13:50:48;1.00;;;1.00;;
10418;SDS011;5256;48.728;9.140;2024-01-15T13:53:16;1.17;;;1.17;;
10418;SDS011;5256;48.728;9.140;2024-01-15T13:55:42;1.20;;;1.20;;
10418;SDS011;5256;48.728;9.140;2024-01-15T13:58:07;1.10;;;1.10;;
10418;SDS011;5256;48.728;9.140;2024-01-15T14:00:33;1.20;;;1.20;;
10418;SDS011;5256;48.728;9.140;2024-01-15T14:02:59;1.10;;;1.10;;
10418;SDS011;5256;48.728;9.140;2024-01-15T14:05:25;1.10;;;1.10;;
10418;SDS011;5256;48.728;9.140;2024-01-15T14:07:50;1.10;;;1.10;;
10418;SDS011;5256;48.728;9.140;2024-01-15T14:10:16;1.10;;;1.10;;
10418;SDS011;5256;48.728;9.140;2024-01-15T14:12:42;1.10;;;1.10;;
10418;SDS011;5256;48.728;9.140;2024-01-15T14:15:08;1.10;;;1.10;;
10418;SDS011;5256;48.728;9.140;2024-01-15T14:17:34;1.10;;;1.10;;
10418;SDS011;5256;48.728;9.140;2024-01-15T14:19:59;1.10;;;1.10;;
10418;SDS011;5256;48.728;9.140;2024-01-15T14:22:25;1.17;;;1.17;;
10418;SDS011;5256;48.728;9.140;2024-01-15T14:24:51;1.10;;;1.10;;
10418;SDS011;5256;48.728;9.140;2024-01-15T14:27:17;1.20;;;1.20;;
10418;SDS011;5256;48.728;9.140;2024-01-15T14:29:43;1.10;;;1.10;;
10418;SDS011;5256;48.728;9.140;2024-01-15T14:32:09;1.10;;;1.10;;
10418;SDS011;5256;48.728;9.140;2024-01-15T14:34:34;1.20;;;1.20;;
10418;SDS011;5256;48.728;9.140;2024-01-15T14:37:05;1.10;;;1.10;;
10418;SDS011;5256;48.728;9.140;2024-01-15T14:39:31;1.27;;;1.27;;
10418;SDS011;5256;48.728;9.140;2024-01-15T14:41:59;1.10;;;1.10;;
10418;SDS011;5256;48.728;9.140;2024-01-15T14:44:25;1.10;;;1.10;;
10418;SDS011;5256;48.728;9.140;2024-01-15T14:46:51;1.10;;;1.10;;
10418;SDS011;5256;48.728;9.140;2024-01-15T14:49:16;1.20;;;1.20;;
10418;SDS011;5256;48.728;9.140;2024-01-15T14:51:43;1.20;;;1.20;;
10418;SDS011;5256;48.728;9.140;2024-01-15T14:54:10;1.20;;;1.20;;
10418;SDS011;5256;48.728;9.140;2024-01-15T14:56:37;1.30;;;1.30;;
10418;SDS011;5256;48.728;9.140;2024-01-15T14:59:02;1.13;;;1.13;;
10418;SDS011;5256;48.728;9.140;2024-01-15T15:01:28;1.20;;;1.20;;
10418;SDS011;5256;48.728;9.140;2024-01-15T15:03:53;1.20;;;1.20;;
10418;SDS011;5256;48.728;9.140;2024-01-15T15:06:19;1.10;;;1.10;;
10418;SDS011;5256;48.728;9.140;2024-01-15T15:08:46;1.20;;;1.20;;